createdAt,value
2022-10-28T00:06:24.000Z,8.2
2022-10-28T00:36:25.000Z,8.0
2022-10-28T01:06:29.000Z,7.6
2022-10-28T01:36:33.000Z,7.4
2022-10-28T02:06:35.000Z,7.1
2022-10-28T02:36:38.000Z,7.1
2022-10-28T03:06:47.000Z,7.5
2022-10-28T03:36:49.000Z,8.0
2022-10-28T04:06:51.000Z,8.4
2022-10-28T04:36:53.000Z,8.7
2022-10-28T05:06:56.000Z,8.6
2022-10-28T05:37:00.000Z,9.0
2022-10-28T05:45:41.000Z,9.1
2022-10-28T06:15:45.000Z,9.3
2022-10-28T06:45:50.000Z,9.6
2022-10-28T07:15:53.000Z,10.0
2022-10-28T07:46:01.000Z,10.7
2022-10-28T08:16:11.000Z,11.6
2022-10-28T08:46:50.000Z,12.4
2022-10-28T09:16:51.000Z,13.2
2022-10-28T09:46:53.000Z,14.7
2022-10-28T10:17:04.000Z,16.0
2022-10-28T10:47:09.000Z,16.8
2022-10-28T11:17:10.000Z,17.9
2022-10-28T11:47:12.000Z,19.0
2022-10-28T11:47:23.000Z,19.0
2022-10-28T11:47:32.000Z,19.0
2022-10-28T11:47:43.000Z,19.0
2022-10-28T11:47:53.000Z,19.0
2022-10-28T12:19:31.000Z,19.5
2022-10-28T12:49:35.000Z,19.7
2022-10-28T13:19:36.000Z,20.2
2022-10-28T13:49:37.000Z,19.4
2022-10-28T14:19:47.000Z,19.1
2022-10-28T14:49:56.000Z,18.8
2022-10-28T15:20:05.000Z,18.4
2022-10-28T15:50:08.000Z,17.6
2022-10-28T16:20:15.000Z,16.1
2022-10-28T16:50:26.000Z,14.8
2022-10-28T17:20:30.000Z,13.8
2022-10-28T17:50:35.000Z,12.8
2022-10-28T18:20:42.000Z,12.2
2022-10-28T18:50:42.000Z,12.0
2022-10-28T19:20:53.000Z,12.4
2022-10-28T19:50:53.000Z,12.1
2022-10-28T20:20:58.000Z,11.5
2022-10-28T20:50:58.000Z,10.9
2022-10-28T21:21:01.000Z,10.5
2022-10-28T21:51:13.000Z,10.4
2022-10-28T22:21:16.000Z,9.9
2022-10-28T22:51:21.000Z,9.5
2022-10-28T23:21:25.000Z,9.1
2022-10-28T23:51:26.000Z,9.1
